Time;durP1;ratioP1;P1;durP2;ratioP2;P2;SDS_P1;SDS_P2;PMS_P1;PMS_P2;Temp;Humidity;BMP_temperature;BMP_pressure;BME280_temperature;BME280_humidity;BME280_pressure;Samples;Min_cycle;Max_cycle;Signal;HPM_P1;HPM_P2
2023/12/04 00:01:44;;;;;;;20.77;9.85;;;;;;;-8.00;100.00;98773.38;6100815;19;20018;-70
2023/12/04 00:03:45;;;;;;;20.15;8.88;;;;;;;-7.96;100.00;98763.75;6100414;19;20014;-69
2023/12/04 00:05:45;;;;;;;20.83;9.40;;;;;;;-7.89;100.00;98765.44;6100786;19;20597;-70
2023/12/04 00:07:46;;;;;;;26.17;10.40;;;;;;;-7.88;100.00;98764.38;6099686;19;20010;-70
2023/12/04 00:09:46;;;;;;;20.27;9.73;;;;;;;-7.89;100.00;98752.00;6098302;19;20007;-70
2023/12/04 00:11:46;;;;;;;22.55;9.30;;;;;;;-7.85;100.00;98755.81;6100211;19;20114;-70
2023/12/04 00:13:47;;;;;;;16.10;8.65;;;;;;;-7.89;100.00;98752.81;6098039;19;20007;-70
2023/12/04 00:15:47;;;;;;;21.67;9.15;;;;;;;-7.95;100.00;98749.25;6098296;19;20023;-70
2023/12/04 00:17:47;;;;;;;18.95;9.23;;;;;;;-7.95;100.00;98748.44;6097637;19;20031;-70
2023/12/04 00:19:48;;;;;;;17.77;8.52;;;;;;;-7.90;100.00;98739.66;6099212;19;20358;-70
2023/12/04 00:21:48;;;;;;;23.10;9.02;;;;;;;-7.89;100.00;98725.97;6098579;19;20454;-70
2023/12/04 00:23:48;;;;;;;21.88;10.30;;;;;;;-7.86;100.00;98727.31;6099476;19;20002;-70
2023/12/04 00:25:49;;;;;;;17.00;8.18;;;;;;;-7.84;100.00;98727.91;6099786;19;20002;-70
2023/12/04 00:27:49;;;;;;;25.58;9.15;;;;;;;-7.92;100.00;98724.59;6099583;19;20023;-70
2023/12/04 00:29:50;;;;;;;20.88;9.55;;;;;;;-7.95;100.00;98726.97;6098291;19;20006;-70
2023/12/04 00:31:50;;;;;;;21.20;9.30;;;;;;;-7.93;100.00;98724.84;6099509;19;20756;-70
2023/12/04 00:33:51;;;;;;;20.25;10.27;;;;;;;-7.93;100.00;98720.28;6098781;19;20032;-70
2023/12/04 00:35:51;;;;;;;20.38;9.30;;;;;;;-7.89;100.00;98722.47;6096856;19;20007;-70
2023/12/04 00:37:51;;;;;;;20.17;9.60;;;;;;;-7.88;100.00;98716.03;6097581;19;20078;-70
2023/12/04 00:39:52;;;;;;;22.55;9.00;;;;;;;-7.86;100.00;98713.88;6098691;19;20007;-70
2023/12/04 00:41:52;;;;;;;17.60;9.05;;;;;;;-7.83;100.00;98708.84;6097768;19;20006;-70
2023/12/04 00:43:52;;;;;;;18.17;8.68;;;;;;;-7.84;100.00;98715.28;6098765;19;20086;-70
2023/12/04 00:45:53;;;;;;;19.33;9.32;;;;;;;-7.81;100.00;98708.59;6104857;19;20017;-70
2023/12/04 00:47:53;;;;;;;17.70;8.68;;;;;;;-7.78;100.00;98708.06;6104643;19;20017;-70
2023/12/04 00:49:53;;;;;;;22.02;9.35;;;;;;;-7.68;100.00;98708.19;6104592;19;20003;-70
2023/12/04 00:51:54;;;;;;;21.63;11.07;;;;;;;-7.64;100.00;98707.41;6105307;19;20259;-70
2023/12/04 00:53:54;;;;;;;18.00;9.60;;;;;;;-7.57;100.00;98711.78;6104414;19;20481;-70
2023/12/04 00:55:54;;;;;;;23.85;10.35;;;;;;;-7.56;100.00;98708.00;6103143;19;20073;-70
2023/12/04 00:57:55;;;;;;;22.02;9.52;;;;;;;-7.52;100.00;98709.16;6104899;19;20651;-70
2023/12/04 00:59:55;;;;;;;23.63;9.73;;;;;;;-7.49;100.00;98700.56;6102961;19;20006;-70
2023/12/04 01:01:55;;;;;;;24.95;9.68;;;;;;;-7.46;100.00;98695.47;6105008;19;20011;-70
2023/12/04 01:03:56;;;;;;;23.08;10.13;;;;;;;-7.45;100.00;98690.91;6104205;19;20022;-70
2023/12/04 01:05:56;;;;;;;22.42;9.73;;;;;;;-7.40;100.00;98682.91;6104926;19;20447;-70
2023/12/04 01:07:56;;;;;;;21.33;9.38;;;;;;;-7.33;100.00;98690.75;6103996;19;20827;-70
2023/12/04 01:09:56;;;;;;;21.00;8.95;;;;;;;-7.32;100.00;98682.44;6102115;19;20013;-70
2023/12/04 01:11:57;;;;;;;21.77;10.38;;;;;;;-7.30;100.00;98674.91;6101617;19;20330;-70
2023/12/04 01:13:57;;;;;;;20.45;9.68;;;;;;;-7.18;100.00;98674.75;6105230;19;20276;-70
2023/12/04 01:15:57;;;;;;;19.15;9.43;;;;;;;-7.10;100.00;98658.94;6103420;19;20026;-70
2023/12/04 01:18:00;;;;;;;19.83;9.30;;;;;;;-7.00;100.00;98665.44;6104282;19;20014;-70
2023/12/04 01:20:00;;;;;;;;;;;;;;;-6.93;100.00;98649.91;6103385;19;20029;-70
2023/12/04 01:22:01;;;;;;;13.07;6.55;;;;;;;-6.90;100.00;98646.66;6104148;19;19985;-70
2023/12/04 01:24:01;;;;;;;16.13;7.72;;;;;;;-6.85;100.00;98641.34;6102139;19;20042;-71
2023/12/04 01:26:02;;;;;;;15.95;8.45;;;;;;;-6.79;100.00;98641.06;6104383;19;20001;-71
2023/12/04 01:28:03;;;;;;;15.82;8.55;;;;;;;-6.71;100.00;98647.03;6103393;19;20086;-70
2023/12/04 01:30:05;;;;;;;18.80;9.25;;;;;;;-6.60;100.00;98637.97;6102429;19;20009;-70
2023/12/04 01:32:06;;;;;;;16.60;6.72;;;;;;;-6.51;100.00;98639.06;6104681;19;20406;-70
2023/12/04 01:34:06;;;;;;;15.90;7.15;;;;;;;-6.47;100.00;98631.25;6103174;19;19998;-70
2023/12/04 01:36:07;;;;;;;16.38;6.95;;;;;;;-6.43;100.00;98638.56;6102924;19;20493;-70
2023/12/04 01:38:08;;;;;;;13.25;6.78;;;;;;;-6.41;100.00;98614.88;6101595;19;20478;-70
2023/12/04 01:40:08;;;;;;;14.32;6.93;;;;;;;-6.30;100.00;98621.91;6104735;19;20002;-70
2023/12/04 01:42:10;;;;;;;12.90;6.25;;;;;;;-6.11;100.00;98618.72;6103970;19;20460;-70
2023/12/04 01:44:10;;;;;;;13.87;6.17;;;;;;;-5.92;100.00;98622.53;6102817;19;20020;-70
2023/12/04 01:46:11;;;;;;;9.25;5.15;;;;;;;-5.82;100.00;98619.00;6104373;19;20279;-70
2023/12/04 01:48:14;;;;;;;10.75;5.90;;;;;;;-5.75;100.00;98616.84;6101695;19;20450;-70
2023/12/04 01:50:15;;;;;;;9.25;4.18;;;;;;;-5.73;100.00;98617.41;6103105;19;20003;-70
2023/12/04 01:52:16;;;;;;;7.70;4.25;;;;;;;-5.70;100.00;98616.88;6102709;19;20003;-70
2023/12/04 01:54:17;;;;;;;8.93;4.20;;;;;;;-5.71;100.00;98616.06;6103561;19;20007;-70
2023/12/04 01:56:19;;;;;;;11.10;5.00;;;;;;;-5.68;100.00;98610.13;6102772;19;20732;-70
2023/12/04 01:58:20;;;;;;;7.32;4.63;;;;;;;-5.70;100.00;98603.41;6102038;19;20476;-70
2023/12/04 02:00:21;;;;;;;9.90;4.65;;;;;;;-5.72;100.00;98600.94;6103057;19;20006;-70
2023/12/04 02:02:21;;;;;;;8.82;3.75;;;;;;;-5.70;100.00;98604.22;6104286;19;20497;-70
2023/12/04 02:04:21;;;;;;;9.55;4.47;;;;;;;-5.70;100.00;98600.69;6102928;19;20541;-70
2023/12/04 02:06:22;;;;;;;7.00;3.78;;;;;;;-5.69;100.00;98608.50;6103350;19;20018;-70
2023/12/04 02:08:22;;;;;;;8.55;4.65;;;;;;;-5.69;100.00;98608.50;6101830;19;20322;-70
2023/12/04 02:10:23;;;;;;;10.38;4.68;;;;;;;-5.65;100.00;98611.47;6102885;19;20033;-70
2023/12/04 02:12:24;;;;;;;8.93;4.60;;;;;;;-5.67;100.00;98609.03;6103461;19;20019;-70
2023/12/04 02:14:25;;;;;;;10.30;4.65;;;;;;;-5.65;100.00;98601.50;6102863;19;20018;-70
2023/12/04 02:16:29;;;;;;;7.70;4.72;;;;;;;-5.60;100.00;98602.59;6102954;19;20241;-70
2023/12/04 02:18:29;;;;;;;10.60;4.90;;;;;;;-5.58;100.00;98603.13;6100985;19;20010;-70
2023/12/04 02:20:34;;;;;;;7.55;4.55;;;;;;;-5.62;100.00;98593.97;6102561;19;20028;-70
2023/12/04 02:22:34;;;;;;;7.00;3.90;;;;;;;-5.62;100.00;98594.78;6102055;19;20006;-70
2023/12/04 02:24:35;;;;;;;6.88;3.92;;;;;;;-5.65;100.00;98596.09;6103342;19;20015;-70
2023/12/04 02:26:42;;;;;;;8.20;4.35;;;;;;;-5.59;100.00;98583.44;6095335;19;20663;-70
2023/12/04 02:28:46;;;;;;;9.00;4.40;;;;;;;-5.57;100.00;98581.28;6100638;19;20005;-70
2023/12/04 02:30:49;;;;;;;8.30;4.10;;;;;;;-5.52;100.00;98572.38;6102392;19;20463;-70
2023/12/04 02:32:51;;;;;;;7.55;3.97;;;;;;;-5.49;100.00;98574.53;6101826;19;20477;-70
2023/12/04 02:34:53;;;;;;;6.82;3.53;;;;;;;-5.48;100.00;98565.34;6101524;19;20010;-70
2023/12/04 02:36:54;;;;;;;5.65;2.92;;;;;;;-5.47;100.00;98561.59;6100822;19;20477;-70
2023/12/04 02:38:55;;;;;;;6.07;3.75;;;;;;;-5.46;100.00;98568.59;6099967;19;20010;-70
2023/12/04 02:40:56;;;;;;;9.00;3.92;;;;;;;-5.42;100.00;98562.38;6101863;19;20006;-70
2023/12/04 02:42:56;;;;;;;7.55;3.85;;;;;;;-5.33;100.00;98557.25;6102161;19;20281;-70
2023/12/04 02:44:56;;;;;;;8.55;4.07;;;;;;;-5.32;100.00;98545.38;6099492;19;20018;-70
2023/12/04 02:46:57;;;;;;;8.25;3.67;;;;;;;-5.32;100.00;98553.47;6101636;19;20013;-70
2023/12/04 02:48:57;;;;;;;9.93;4.28;;;;;;;-5.30;100.00;98545.91;6100072;19;20041;-70
2023/12/04 02:50:57;;;;;;;7.03;3.95;;;;;;;-5.29;100.00;98547.56;6101908;19;20006;-70
2023/12/04 02:52:58;;;;;;;6.10;4.15;;;;;;;-5.26;100.00;98543.50;6100907;19;20002;-70
2023/12/04 02:54:58;;;;;;;8.10;3.75;;;;;;;-5.24;100.00;98554.81;6100325;19;19999;-70
2023/12/04 02:56:59;;;;;;;8.02;4.30;;;;;;;-5.24;100.00;98546.72;6100918;19;20002;-70
2023/12/04 02:58:59;;;;;;;6.72;3.95;;;;;;;-5.19;100.00;98558.31;6100535;19;20489;-70
2023/12/04 03:00:59;;;;;;;6.47;3.83;;;;;;;-5.23;100.00;98551.03;6101258;19;20005;-70
2023/12/04 03:03:00;;;;;;;8.90;4.10;;;;;;;-5.27;100.00;98548.06;6101270;19;20010;-70
2023/12/04 03:05:00;;;;;;;7.22;4.07;;;;;;;-5.30;100.00;98543.22;6100762;19;19998;-70
2023/12/04 03:07:01;;;;;;;6.57;3.60;;;;;;;-5.28;100.00;98545.66;6100318;19;20006;-70
2023/12/04 03:09:03;;;;;;;11.55;3.53;;;;;;;-5.23;100.00;98543.75;6099101;19;20826;-70
2023/12/04 03:11:04;;;;;;;6.32;4.10;;;;;;;-5.20;100.00;98535.13;6102130;19;20013;-70
2023/12/04 03:13:04;;;;;;;7.53;3.88;;;;;;;-5.14;100.00;98542.09;6100224;19;20455;-70
2023/12/04 03:15:05;;;;;;;7.70;3.75;;;;;;;-5.09;100.00;98531.28;6100594;19;19998;-70
2023/12/04 03:17:05;;;;;;;9.60;4.07;;;;;;;-5.09;100.00;98531.28;6100158;19;20433;-70
2023/12/04 03:19:06;;;;;;;6.05;3.13;;;;;;;-4.98;100.00;98528.56;6100031;19;20340;-70
2023/12/04 03:21:06;;;;;;;6.60;4.13;;;;;;;-4.92;100.00;98525.56;6099815;19;20497;-70
2023/12/04 03:23:07;;;;;;;7.35;3.38;;;;;;;-4.89;100.00;98527.72;6100834;19;20002;-70
2023/12/04 03:25:07;;;;;;;6.03;3.20;;;;;;;-4.85;100.00;98526.09;6100728;19;20002;-70
2023/12/04 03:27:08;;;;;;;4.75;2.90;;;;;;;-4.89;100.00;98522.31;6097467;19;20011;-69
2023/12/04 03:29:08;;;;;;;5.38;2.95;;;;;;;-4.89;100.00;98527.72;6092226;19;20453;-70
2023/12/04 03:31:09;;;;;;;5.78;3.33;;;;;;;-4.88;100.00;98517.72;6094472;19;20455;-70
2023/12/04 03:33:10;;;;;;;5.35;3.17;;;;;;;-4.88;100.00;98512.31;6091564;19;20013;-70
2023/12/04 03:35:10;;;;;;;4.03;2.83;;;;;;;-4.85;100.00;98507.19;6092203;19;20020;-70
2023/12/04 03:37:10;;;;;;;5.18;2.88;;;;;;;-4.81;100.00;98515.53;6094904;19;20239;-70
2023/12/04 03:39:11;;;;;;;6.85;3.53;;;;;;;-4.78;100.00;98503.41;6093364;19;20021;-70
2023/12/04 03:41:15;;;;;;;4.97;3.20;;;;;;;-4.68;100.00;98509.53;6094042;19;20003;-70
2023/12/04 03:43:16;;;;;;;6.88;3.50;;;;;;;-4.68;100.00;98492.53;6094182;19;20010;-70
2023/12/04 03:45:16;;;;;;;7.10;3.72;;;;;;;-4.67;100.00;98494.94;6093975;19;20045;-70
2023/12/04 03:47:16;;;;;;;6.20;2.97;;;;;;;-4.63;100.00;98490.63;6093750;19;20818;-69
2023/12/04 03:49:17;;;;;;;4.28;3.28;;;;;;;-4.57;100.00;98489.50;6091658;19;20020;-69
2023/12/04 03:51:17;;;;;;;4.35;3.10;;;;;;;-4.50;100.00;98491.09;6093874;19;20002;-69
2023/12/04 03:53:17;;;;;;;5.85;3.35;;;;;;;-4.47;100.00;98477.00;6093619;19;20051;-69
2023/12/04 03:55:19;;;;;;;7.90;3.47;;;;;;;-4.44;100.00;98479.16;6093041;19;20010;-70
2023/12/04 03:57:19;;;;;;;6.57;4.05;;;;;;;-4.42;100.00;98474.28;6093153;19;20010;-70
2023/12/04 03:59:20;;;;;;;8.93;3.78;;;;;;;-4.37;100.00;98475.06;6092813;19;20018;-70
2023/12/04 04:01:20;;;;;;;8.85;3.83;;;;;;;-4.42;100.00;98472.38;6093495;19;20013;-70
2023/12/04 04:03:20;;;;;;;6.88;3.45;;;;;;;-4.42;100.00;98480.50;6092735;19;20058;-69
2023/12/04 04:05:21;;;;;;;5.32;2.95;;;;;;;-4.46;100.00;98481.34;6093389;19;20105;-70
2023/12/04 04:07:21;;;;;;;6.40;3.25;;;;;;;-4.47;100.00;98487.81;6093714;19;20305;-70
2023/12/04 04:09:22;;;;;;;6.15;3.25;;;;;;;-4.41;100.00;98486.69;6092277;19;20062;-70
2023/12/04 04:11:22;;;;;;;5.07;3.20;;;;;;;-4.40;100.00;98480.22;6093596;19;20428;-70
2023/12/04 04:13:22;;;;;;;6.20;3.15;;;;;;;-4.42;100.00;98471.59;6093266;19;20494;-70
2023/12/04 04:15:23;;;;;;;6.05;3.13;;;;;;;-4.39;100.00;98479.13;6092866;19;20810;-70
2023/12/04 04:17:25;;;;;;;6.35;3.58;;;;;;;-4.37;100.00;98477.78;6091648;19;20586;-70
2023/12/04 04:19:26;;;;;;;6.15;3.42;;;;;;;-4.38;100.00;98469.94;6091459;19;20230;-70
2023/12/04 04:21:26;;;;;;;6.28;3.55;;;;;;;-4.42;100.00;98467.00;6099127;19;20348;-69
2023/12/04 04:23:26;;;;;;;6.28;3.38;;;;;;;-4.41;100.00;98467.78;6097852;19;20007;-70
2023/12/04 04:25:27;;;;;;;8.93;4.00;;;;;;;-4.39;100.00;98463.72;6098659;19;20042;-69
2023/12/04 04:27:27;;;;;;;6.20;3.05;;;;;;;-4.37;100.00;98460.75;6099748;19;20002;-70
2023/12/04 04:29:27;;;;;;;6.97;3.63;;;;;;;-4.29;100.00;98458.25;6104378;19;20367;-70
2023/12/04 04:31:28;;;;;;;6.20;3.47;;;;;;;-4.30;100.00;98463.94;6104615;19;20613;-70
2023/12/04 04:33:28;;;;;;;6.60;3.50;;;;;;;-4.32;100.00;98464.22;6105582;19;20371;-70
2023/12/04 04:35:28;;;;;;;5.57;3.30;;;;;;;-4.28;100.00;98459.88;6103967;19;20003;-70
2023/12/04 04:37:29;;;;;;;7.20;3.45;;;;;;;-4.27;100.00;98456.06;6105883;19;20036;-70
2023/12/04 04:39:29;;;;;;;5.82;3.08;;;;;;;-4.27;100.00;98449.88;6103772;19;20002;-70
2023/12/04 04:41:29;;;;;;;4.28;2.88;;;;;;;-4.30;100.00;98455.84;6104942;19;20022;-70
2023/12/04 04:43:30;;;;;;;5.38;3.42;;;;;;;-4.31;100.00;98452.31;6104505;19;19999;-69
2023/12/04 04:45:30;;;;;;;4.53;3.03;;;;;;;-4.32;100.00;98453.41;6104699;19;20389;-69
2023/12/04 04:47:30;;;;;;;5.97;3.55;;;;;;;-4.28;100.00;98453.66;6098893;19;20003;-70
2023/12/04 04:49:31;;;;;;;7.45;3.53;;;;;;;-4.24;100.00;98457.41;6103248;19;20025;-70
2023/12/04 04:51:31;;;;;;;7.55;3.97;;;;;;;-4.24;100.00;98455.50;6104804;19;20011;-69
2023/12/04 04:53:31;;;;;;;6.40;3.90;;;;;;;-4.23;100.00;98450.91;6104123;19;20010;-69
2023/12/04 04:55:32;;;;;;;6.57;3.60;;;;;;;-4.24;100.00;98446.59;6103080;19;20010;-70
2023/12/04 04:57:32;;;;;;;4.90;3.05;;;;;;;-4.19;100.00;98434.94;6103282;19;20013;-69
2023/12/04 04:59:32;;;;;;;5.47;3.30;;;;;;;-4.20;100.00;98444.97;6103330;19;20002;-69
2023/12/04 05:01:33;;;;;;;6.30;3.50;;;;;;;-4.22;100.00;98436.31;6103874;19;20062;-70
2023/12/04 05:03:33;;;;;;;7.32;3.92;;;;;;;-4.24;100.00;98427.69;6103037;19;20707;-70
2023/12/04 05:05:33;;;;;;;5.85;3.15;;;;;;;-4.25;100.00;98431.47;6104171;19;20026;-70
2023/12/04 05:07:34;;;;;;;5.97;3.65;;;;;;;-4.24;100.00;98422.28;6103325;19;20070;-70
2023/12/04 05:09:34;;;;;;;6.53;3.40;;;;;;;-4.16;100.00;98421.66;6102086;19;20544;-69
2023/12/04 05:11:34;;;;;;;7.13;3.80;;;;;;;-4.15;100.00;98417.88;6104301;19;20308;-70
2023/12/04 05:13:35;;;;;;;6.53;3.35;;;;;;;-4.10;100.00;98415.13;6103362;19;20045;-69
2023/12/04 05:15:36;;;;;;;6.65;3.83;;;;;;;-3.97;100.00;98413.69;6103705;19;20003;-69
2023/12/04 05:17:36;;;;;;;7.65;3.63;;;;;;;-3.94;100.00;98409.59;6103200;19;20082;-69
2023/12/04 05:19:36;;;;;;;6.18;3.28;;;;;;;-3.97;100.00;98413.69;6101297;19;20011;-69
2023/12/04 05:21:37;;;;;;;9.68;4.75;;;;;;;-4.03;100.00;98418.31;6103560;19;20007;-70
2023/12/04 05:23:40;;;;;;;7.30;3.53;;;;;;;-4.05;100.00;98412.41;6103385;19;20083;-69
2023/12/04 05:25:40;;;;;;;12.00;4.45;;;;;;;-3.99;100.00;98411.25;6103304;19;20003;-70
2023/12/04 05:27:41;;;;;;;15.48;5.70;;;;;;;-4.03;100.00;98402.09;6103551;19;20015;-70
2023/12/04 05:29:41;;;;;;;11.00;5.00;;;;;;;-4.06;100.00;98401.84;6102028;19;20023;-69
2023/12/04 05:31:41;;;;;;;11.05;4.97;;;;;;;-4.07;100.00;98392.94;6100777;19;20012;-70
2023/12/04 05:33:42;;;;;;;9.43;4.97;;;;;;;-4.01;100.00;98394.50;6103642;19;19999;-70
2023/12/04 05:35:42;;;;;;;7.85;4.03;;;;;;;-4.08;100.00;98391.34;6102378;19;20016;-70
2023/12/04 05:37:42;;;;;;;9.90;4.75;;;;;;;-4.09;100.00;98399.72;6102728;19;20513;-69
2023/12/04 05:39:43;;;;;;;7.45;3.83;;;;;;;-4.09;100.00;98391.63;6103239;19;19999;-69
2023/12/04 05:41:43;;;;;;;10.07;5.05;;;;;;;-4.10;100.00;98382.72;6102374;19;20443;-70
2023/12/04 05:43:43;;;;;;;8.73;4.05;;;;;;;-4.05;100.00;98379.97;6103091;19;20032;-70
2023/12/04 05:45:44;;;;;;;7.97;3.78;;;;;;;-4.01;100.00;98375.59;6100144;19;20006;-69
2023/12/04 05:47:44;;;;;;;9.13;4.72;;;;;;;-3.89;100.00;98369.78;6102741;19;20015;-69
2023/12/04 05:49:44;;;;;;;10.65;4.50;;;;;;;-3.92;100.00;98367.66;6101398;19;20011;-69
2023/12/04 05:51:45;;;;;;;7.78;4.43;;;;;;;-3.92;100.00;98383.09;6102808;19;20018;-69
2023/12/04 05:53:45;;;;;;;8.63;4.50;;;;;;;-3.98;100.00;98377.72;6102083;19;20003;-69
2023/12/04 05:55:46;;;;;;;6.88;4.18;;;;;;;-3.97;100.00;98373.16;6102685;19;20351;-69
2023/12/04 05:57:46;;;;;;;7.00;3.67;;;;;;;-4.03;100.00;98376.97;6102592;19;20454;-69
2023/12/04 05:59:46;;;;;;;6.53;4.05;;;;;;;-4.03;100.00;98368.88;6101219;19;20039;-69
2023/12/04 06:01:48;;;;;;;7.90;3.88;;;;;;;-4.07;100.00;98363.22;6102262;19;20009;-70
2023/12/04 06:03:48;;;;;;;8.43;3.53;;;;;;;-4.07;100.00;98362.41;6101413;19;20554;-69
2023/12/04 06:05:48;;;;;;;6.55;3.67;;;;;;;-4.09;100.00;98354.59;6100993;19;20018;-69
2023/12/04 06:07:49;;;;;;;9.07;4.13;;;;;;;-4.07;100.00;98357.00;6100321;19;20429;-69
2023/12/04 06:09:49;;;;;;;9.13;3.95;;;;;;;-4.08;100.00;98358.91;6101129;19;20483;-69
2023/12/04 06:11:49;;;;;;;6.93;3.92;;;;;;;-3.95;100.00;98360.16;6102283;19;20011;-69
2023/12/04 06:13:50;;;;;;;9.55;5.18;;;;;;;-3.94;100.00;98363.66;6101829;19;20458;-70
2023/12/04 06:15:50;;;;;;;6.03;3.50;;;;;;;-4.02;100.00;98363.19;6100892;19;20114;-70
2023/12/04 06:17:50;;;;;;;7.53;4.32;;;;;;;-4.08;100.00;98358.91;6101039;19;20554;-69
2023/12/04 06:19:51;;;;;;;7.05;3.75;;;;;;;-4.16;100.00;98345.22;6100425;19;20459;-69
2023/12/04 06:21:52;;;;;;;8.45;4.03;;;;;;;-4.24;100.00;98344.75;6101882;19;20322;-70
2023/12/04 06:23:53;;;;;;;6.72;3.58;;;;;;;-4.31;100.00;98348.84;6101337;19;20038;-70
2023/12/04 06:25:53;;;;;;;6.32;3.72;;;;;;;-4.37;100.00;98342.72;6094087;19;20502;-70
2023/12/04 06:27:54;;;;;;;13.38;4.25;;;;;;;-4.43;100.00;98335.75;6093561;19;20332;-70
2023/12/04 06:29:55;;;;;;;5.85;3.25;;;;;;;-4.46;100.00;98343.63;6095646;19;20010;-70
2023/12/04 06:31:55;;;;;;;5.78;3.60;;;;;;;-4.52;100.00;98330.16;6094893;19;20006;-69
2023/12/04 06:33:56;;;;;;;6.72;3.00;;;;;;;-4.52;100.00;98340.94;6094218;19;20006;-70
2023/12/04 06:35:56;;;;;;;6.65;3.70;;;;;;;-4.52;100.00;98346.34;6094674;19;20010;-70
2023/12/04 06:38:03;;;;;;;7.95;3.75;;;;;;;-4.54;100.00;98345.84;6094483;19;20003;-70
2023/12/04 06:40:04;;;;;;;6.03;3.65;;;;;;;-4.57;100.00;98351.78;6098332;19;20010;-70
2023/12/04 06:42:06;;;;;;;7.28;3.45;;;;;;;-4.56;100.00;98350.69;6099200;19;20014;-70
2023/12/04 06:44:07;;;;;;;5.65;3.47;;;;;;;-4.58;100.00;98346.66;6098139;19;20490;-70
2023/12/04 06:46:08;;;;;;;5.97;3.95;;;;;;;-4.62;100.00;98349.13;6100705;19;20002;-70
2023/12/04 06:48:10;;;;;;;8.65;3.90;;;;;;;-4.62;100.00;98356.44;6099000;19;20117;-70
2023/12/04 06:50:11;;;;;;;;;;;;;;;-4.62;100.00;98354.53;6102116;19;19998;-70
2023/12/04 06:52:11;;;;;;;4.90;3.17;;;;;;;-4.63;100.00;98366.44;6100037;19;19927;-70
2023/12/04 06:54:13;;;;;;;7.38;3.60;;;;;;;-4.66;100.00;98361.56;6102011;19;20335;-70
2023/12/04 06:56:13;;;;;;;6.05;3.55;;;;;;;-4.65;100.00;98354.28;6102640;19;20011;-70
2023/12/04 06:58:14;;;;;;;6.70;3.72;;;;;;;-4.68;100.00;98354.84;6099403;19;19999;-70
2023/12/04 07:00:15;;;;;;;7.45;4.05;;;;;;;-4.65;100.00;98365.09;6101673;19;20001;-70
2023/12/04 07:02:16;;;;;;;5.75;3.70;;;;;;;-4.66;100.00;98353.47;6101194;19;20317;-70
2023/12/04 07:04:20;;;;;;;6.82;3.72;;;;;;;-4.68;100.00;98344.88;6101969;19;20385;-70
2023/12/04 07:06:21;;;;;;;7.43;3.78;;;;;;;-4.67;100.00;98351.06;6101409;19;20036;-70
2023/12/04 07:08:21;;;;;;;7.18;4.45;;;;;;;-4.69;100.00;98354.06;6100168;19;20030;-70
2023/12/04 07:10:21;;;;;;;7.40;4.47;;;;;;;-4.72;100.00;98341.09;6101413;19;20026;-70
2023/12/04 07:12:22;;;;;;;8.38;4.97;;;;;;;-4.69;100.00;98353.25;6099371;19;20006;-70
2023/12/04 07:14:22;;;;;;;10.02;4.45;;;;;;;-4.70;100.00;98338.94;6100379;19;20400;-70
2023/12/04 07:16:22;;;;;;;8.38;4.50;;;;;;;-4.70;100.00;98343.53;6099793;19;20006;-70
2023/12/04 07:18:22;;;;;;;8.80;4.55;;;;;;;-4.68;100.00;98338.66;6099921;19;20402;-70
2023/12/04 07:20:23;;;;;;;6.70;4.13;;;;;;;-4.65;100.00;98336.19;6100281;19;20600;-70
2023/12/04 07:22:24;;;;;;;8.43;4.47;;;;;;;-4.60;100.00;98336.16;6100823;19;20003;-70
2023/12/04 07:24:26;;;;;;;7.32;4.50;;;;;;;-4.60;100.00;98335.34;6101055;19;20114;-70
2023/12/04 07:26:26;;;;;;;12.98;4.65;;;;;;;-4.60;100.00;98333.47;6093794;19;20035;-70
2023/12/04 07:28:26;;;;;;;25.00;6.32;;;;;;;-4.58;100.00;98330.47;6098359;19;20365;-70
2023/12/04 07:30:27;;;;;;;14.68;5.18;;;;;;;-4.57;100.00;98326.69;6100766;19;20010;-70
2023/12/04 07:32:27;;;;;;;8.95;5.07;;;;;;;-4.57;100.00;98337.47;6097783;19;20015;-70
2023/12/04 07:34:28;;;;;;;6.55;4.05;;;;;;;-4.57;100.00;98330.19;6095855;19;20406;-70
2023/12/04 07:36:28;;;;;;;7.50;4.00;;;;;;;-4.56;100.00;98323.69;6097408;19;20051;-70
2023/12/04 07:38:29;;;;;;;7.07;3.90;;;;;;;-4.57;100.00;98329.38;6096477;19;20455;-70
2023/12/04 07:40:29;;;;;;;10.27;4.15;;;;;;;-4.58;100.00;98327.78;6098942;19;20009;-70
2023/12/04 07:42:29;;;;;;;5.82;3.70;;;;;;;-4.57;100.00;98327.47;6098439;19;20006;-70
2023/12/04 07:44:30;;;;;;;8.45;4.15;;;;;;;-4.53;100.00;98325.84;6100095;19;20948;-70
2023/12/04 07:46:30;;;;;;;9.20;4.13;;;;;;;-4.52;100.00;98323.94;6099108;19;20229;-70
2023/12/04 07:48:31;;;;;;;8.30;4.10;;;;;;;-4.54;100.00;98324.22;6099047;19;20006;-70
2023/12/04 07:50:31;;;;;;;12.18;4.53;;;;;;;-4.50;100.00;98323.66;6100225;19;20353;-70
2023/12/04 07:52:31;;;;;;;7.78;4.03;;;;;;;-4.50;100.00;98318.25;6100235;19;20107;-70
2023/12/04 07:54:32;;;;;;;5.93;4.10;;;;;;;-4.48;100.00;98321.47;6096081;19;20083;-70
2023/12/04 07:56:32;;;;;;;6.05;3.50;;;;;;;-4.46;100.00;98322.81;6098509;19;20002;-70
2023/12/04 07:58:33;;;;;;;7.15;4.38;;;;;;;-4.42;100.00;98320.34;6097406;19;20566;-69
2023/12/04 08:00:33;;;;;;;6.50;3.75;;;;;;;-4.39;100.00;98325.16;6099319;19;20003;-70
2023/12/04 08:02:34;;;;;;;9.65;5.40;;;;;;;-4.36;100.00;98316.50;6100006;19;20017;-70
2023/12/04 08:04:34;;;;;;;9.15;5.65;;;;;;;-4.34;100.00;98320.53;6099853;19;20011;-70
2023/12/04 08:06:35;;;;;;;7.28;4.47;;;;;;;-4.28;100.00;98316.69;6099742;19;20002;-70
2023/12/04 08:08:35;;;;;;;9.65;3.95;;;;;;;-4.24;100.00;98317.72;6099905;19;20082;-70
2023/12/04 08:10:36;;;;;;;6.60;4.07;;;;;;;-4.21;100.00;98308.25;6099928;19;20031;-70
2023/12/04 08:12:36;;;;;;;7.55;4.47;;;;;;;-4.19;100.00;98314.19;6100328;19;20011;-70
2023/12/04 08:14:36;;;;;;;7.43;4.82;;;;;;;-4.16;100.00;98310.09;6100133;19;20011;-70
2023/12/04 08:16:37;;;;;;;7.72;5.32;;;;;;;-4.11;100.00;98307.34;6099713;19;20016;-70
2023/12/04 08:18:37;;;;;;;9.88;4.70;;;;;;;-4.08;100.00;98312.16;6099326;19;20018;-70
2023/12/04 08:20:37;;;;;;;8.50;4.07;;;;;;;-4.01;100.00;98313.44;6099902;19;20041;-70
2023/12/04 08:22:38;;;;;;;7.05;4.57;;;;;;;-3.98;100.00;98303.94;6099525;19;20233;-70
2023/12/04 08:24:38;;;;;;;8.45;4.70;;;;;;;-3.94;100.00;98305.00;6099333;19;20339;-70
2023/12/04 08:26:38;;;;;;;8.50;4.40;;;;;;;-3.90;100.00;98306.00;6098712;19;20010;-70
2023/12/04 08:28:41;;;;;;;9.15;4.50;;;;;;;-3.88;100.00;98297.63;6086845;19;20014;-70
2023/12/04 08:30:41;;;;;;;9.32;4.68;;;;;;;-3.87;100.00;98296.53;6090581;19;20006;-70
2023/12/04 08:32:42;;;;;;;9.38;4.65;;;;;;;-3.85;100.00;98300.56;6092081;19;20357;-70
2023/12/04 08:34:43;;;;;;;8.75;4.43;;;;;;;-3.84;100.00;98301.38;6090723;19;20859;-70
2023/12/04 08:36:43;;;;;;;7.70;4.00;;;;;;;-3.83;100.00;98297.56;6091448;19;20294;-70
2023/12/04 08:38:43;;;;;;;8.93;4.78;;;;;;;-3.81;100.00;98298.88;6091654;19;20002;-70
2023/12/04 08:40:44;;;;;;;9.18;4.95;;;;;;;-3.78;100.00;98292.91;6090616;19;20428;-70
2023/12/04 08:42:45;;;;;;;12.00;5.50;;;;;;;-3.73;100.00;98300.94;6091598;19;20334;-69
2023/12/04 08:44:47;;;;;;;14.43;8.32;;;;;;;-3.67;100.00;98294.38;6091991;19;20013;-70
2023/12/04 08:46:47;;;;;;;21.85;9.40;;;;;;;-3.63;100.00;98299.22;6091535;19;20021;-70
2023/12/04 08:48:48;;;;;;;13.85;8.48;;;;;;;-3.59;100.00;98298.34;6090150;19;20018;-70
2023/12/04 08:50:48;;;;;;;14.02;8.25;;;;;;;-3.56;100.00;98292.34;6091401;19;20011;-70
2023/12/04 08:52:48;;;;;;;11.02;6.97;;;;;;;-3.55;100.00;98295.88;6091188;19;20244;-70
2023/12/04 08:54:49;;;;;;;11.52;6.55;;;;;;;-3.52;100.00;98287.19;6090712;19;20014;-70
2023/12/04 08:56:49;;;;;;;11.63;6.93;;;;;;;-3.50;100.00;98284.97;6090598;19;20039;-70
2023/12/04 08:58:50;;;;;;;11.00;6.53;;;;;;;-3.47;100.00;98287.94;6089796;19;20516;-70
2023/12/04 09:00:50;;;;;;;11.80;6.88;;;;;;;-3.46;100.00;98289.53;6091080;19;20015;-70
2023/12/04 09:02:51;;;;;;;16.35;7.22;;;;;;;-3.44;100.00;98289.22;6091153;19;20056;-70
2023/12/04 09:04:51;;;;;;;13.30;6.75;;;;;;;-3.44;100.00;98291.94;6090849;19;20054;-70
2023/12/04 09:06:51;;;;;;;11.57;5.97;;;;;;;-3.44;100.00;98292.75;6096349;19;20093;-70
2023/12/04 09:08:52;;;;;;;10.80;6.60;;;;;;;-3.41;100.00;98294.03;6095641;19;20006;-70
2023/12/04 09:10:52;;;;;;;19.23;9.43;;;;;;;-3.38;100.00;98295.38;6096116;19;20010;-70
2023/12/04 09:12:52;;;;;;;26.45;9.88;;;;;;;-3.36;100.00;98291.28;6097598;19;20033;-70
2023/12/04 09:14:53;;;;;;;16.80;9.60;;;;;;;-3.35;100.00;98292.88;6096544;19;20007;-70
2023/12/04 09:16:53;;;;;;;18.88;9.25;;;;;;;-3.32;100.00;98292.28;6093509;19;20163;-70
2023/12/04 09:18:53;;;;;;;17.83;10.50;;;;;;;-3.26;100.00;98299.25;6095803;19;20418;-70